sensor_id;sensor_type;location;lat;lon;timestamp;P1;durP1;ratioP1;P2;durP2;ratioP2
66893;SDS011;53801;55.786;49.142;2023-02-20T00:00:07;9.53;;;3.53;;
66893;SDS011;53801;55.786;49.142;2023-02-20T00:05:01;10.77;;;1.88;;
66893;SDS011;53801;55.786;49.142;2023-02-20T00:07:26;12.20;;;1.83;;
66893;SDS011;53801;55.786;49.142;2023-02-20T00:09:51;11.53;;;3.10;;
66893;SDS011;53801;55.786;49.142;2023-02-20T00:12:17;9.77;;;4.67;;
66893;SDS011;53801;55.786;49.142;2023-02-20T00:14:42;14.43;;;4.80;;
66893;SDS011;53801;55.786;49.142;2023-02-20T00:17:08;12.67;;;2.53;;
66893;SDS011;53801;55.786;49.142;2023-02-20T00:19:33;13.73;;;3.37;;
66893;SDS011;53801;55.786;49.142;2023-02-20T00:21:58;16.92;;;4.00;;
66893;SDS011;53801;55.786;49.142;2023-02-20T00:24:24;9.97;;;2.60;;
66893;SDS011;53801;55.786;49.142;2023-02-20T00:26:50;9.73;;;3.80;;
66893;SDS011;53801;55.786;49.142;2023-02-20T00:29:17;8.38;;;3.63;;
66893;SDS011;53801;55.786;49.142;2023-02-20T00:31:43;17.40;;;4.73;;
66893;SDS011;53801;55.786;49.142;2023-02-20T00:34:13;14.60;;;4.93;;
66893;SDS011;53801;55.786;49.142;2023-02-20T00:36:39;17.30;;;2.97;;
66893;SDS011;53801;55.786;49.142;2023-02-20T00:39:04;5.37;;;2.70;;
66893;SDS011;53801;55.786;49.142;2023-02-20T00:41:30;6.33;;;2.67;;
66893;SDS011;53801;55.786;49.142;2023-02-20T00:43:55;8.25;;;3.85;;
66893;SDS011;53801;55.786;49.142;2023-02-20T00:46:20;14.00;;;3.57;;
66893;SDS011;53801;55.786;49.142;2023-02-20T00:48:46;8.37;;;2.27;;
66893;SDS011;53801;55.786;49.142;2023-02-20T00:51:11;9.63;;;2.63;;
66893;SDS011;53801;55.786;49.142;2023-02-20T00:53:37;12.13;;;3.53;;
66893;SDS011;53801;55.786;49.142;2023-02-20T00:56:02;11.83;;;3.10;;
66893;SDS011;53801;55.786;49.142;2023-02-20T00:58:27;7.87;;;2.63;;
66893;SDS011;53801;55.786;49.142;2023-02-20T01:00:53;4.90;;;2.67;;
66893;SDS011;53801;55.786;49.142;2023-02-20T01:03:18;10.60;;;4.25;;
66893;SDS011;53801;55.786;49.142;2023-02-20T01:05:43;3.77;;;1.70;;
66893;SDS011;53801;55.786;49.142;2023-02-20T01:08:09;10.63;;;3.57;;
66893;SDS011;53801;55.786;49.142;2023-02-20T01:10:34;8.93;;;3.50;;
66893;SDS011;53801;55.786;49.142;2023-02-20T01:12:59;4.23;;;1.80;;
66893;SDS011;53801;55.786;49.142;2023-02-20T01:15:25;8.93;;;3.83;;
66893;SDS011;53801;55.786;49.142;2023-02-20T01:17:50;7.60;;;2.63;;
66893;SDS011;53801;55.786;49.142;2023-02-20T01:20:16;9.63;;;3.37;;
66893;SDS011;53801;55.786;49.142;2023-02-20T01:22:41;11.48;;;3.28;;
66893;SDS011;53801;55.786;49.142;2023-02-20T01:25:07;7.10;;;2.00;;
66893;SDS011;53801;55.786;49.142;2023-02-20T01:27:32;7.50;;;2.47;;
66893;SDS011;53801;55.786;49.142;2023-02-20T01:29:57;26.43;;;5.33;;
66893;SDS011;53801;55.786;49.142;2023-02-20T01:32:23;8.40;;;2.50;;
66893;SDS011;53801;55.786;49.142;2023-02-20T01:34:48;4.13;;;1.93;;
66893;SDS011;53801;55.786;49.142;2023-02-20T01:37:14;5.60;;;3.10;;
66893;SDS011;53801;55.786;49.142;2023-02-20T01:39:39;15.73;;;3.58;;
66893;SDS011;53801;55.786;49.142;2023-02-20T01:42:06;10.33;;;2.97;;
66893;SDS011;53801;55.786;49.142;2023-02-20T01:44:33;10.85;;;3.55;;
66893;SDS011;53801;55.786;49.142;2023-02-20T01:47:00;9.50;;;3.13;;
66893;SDS011;53801;55.786;49.142;2023-02-20T01:49:31;5.05;;;3.33;;
66893;SDS011;53801;55.786;49.142;2023-02-20T01:51:59;13.25;;;2.60;;
66893;SDS011;53801;55.786;49.142;2023-02-20T01:54:26;9.10;;;3.10;;
66893;SDS011;53801;55.786;49.142;2023-02-20T01:56:53;11.18;;;4.38;;
66893;SDS011;53801;55.786;49.142;2023-02-20T01:59:21;4.87;;;1.60;;
66893;SDS011;53801;55.786;49.142;2023-02-20T02:01:47;13.10;;;3.88;;
66893;SDS011;53801;55.786;49.142;2023-02-20T02:04:12;17.13;;;2.63;;
66893;SDS011;53801;55.786;49.142;2023-02-20T02:06:39;6.78;;;1.77;;
66893;SDS011;53801;55.786;49.142;2023-02-20T02:09:40;4.32;;;3.30;;
66893;SDS011;53801;55.786;49.142;2023-02-20T02:11:57;5.07;;;1.80;;
66893;SDS011;53801;55.786;49.142;2023-02-20T02:14:22;12.17;;;2.87;;
66893;SDS011;53801;55.786;49.142;2023-02-20T02:16:54;7.30;;;2.25;;
66893;SDS011;53801;55.786;49.142;2023-02-20T02:33:05;8.80;;;2.65;;
66893;SDS011;53801;55.786;49.142;2023-02-20T02:40:59;9.73;;;2.28;;
66893;SDS011;53801;55.786;49.142;2023-02-20T02:43:39;14.82;;;2.67;;
66893;SDS011;53801;55.786;49.142;2023-02-20T02:46:08;15.27;;;4.07;;
66893;SDS011;53801;55.786;49.142;2023-02-20T02:48:40;9.90;;;1.92;;
66893;SDS011;53801;55.786;49.142;2023-02-20T02:51:15;13.80;;;3.33;;
66893;SDS011;53801;55.786;49.142;2023-02-20T02:53:41;8.13;;;2.50;;
66893;SDS011;53801;55.786;49.142;2023-02-20T02:56:08;3.37;;;2.20;;
66893;SDS011;53801;55.786;49.142;2023-02-20T02:58:49;8.57;;;2.63;;
66893;SDS011;53801;55.786;49.142;2023-02-20T03:01:15;10.50;;;2.22;;
66893;SDS011;53801;55.786;49.142;2023-02-20T03:03:42;7.20;;;1.63;;
66893;SDS011;53801;55.786;49.142;2023-02-20T03:06:09;11.40;;;3.13;;
66893;SDS011;53801;55.786;49.142;2023-02-20T03:08:45;4.18;;;2.00;;
66893;SDS011;53801;55.786;49.142;2023-02-20T03:13:49;6.77;;;2.53;;
66893;SDS011;53801;55.786;49.142;2023-02-20T03:16:39;7.70;;;2.23;;
66893;SDS011;53801;55.786;49.142;2023-02-20T03:19:05;12.15;;;2.75;;
66893;SDS011;53801;55.786;49.142;2023-02-20T03:21:32;6.40;;;2.85;;
66893;SDS011;53801;55.786;49.142;2023-02-20T03:23:59;5.10;;;1.87;;
66893;SDS011;53801;55.786;49.142;2023-02-20T03:26:27;10.52;;;2.88;;
66893;SDS011;53801;55.786;49.142;2023-02-20T03:29:00;10.95;;;2.70;;
66893;SDS011;53801;55.786;49.142;2023-02-20T03:31:33;7.40;;;2.65;;
66893;SDS011;53801;55.786;49.142;2023-02-20T03:34:02;9.45;;;3.97;;
66893;SDS011;53801;55.786;49.142;2023-02-20T03:36:49;4.22;;;2.38;;
66893;SDS011;53801;55.786;49.142;2023-02-20T03:39:35;8.10;;;2.67;;
66893;SDS011;53801;55.786;49.142;2023-02-20T03:42:20;8.27;;;3.57;;
66893;SDS011;53801;55.786;49.142;2023-02-20T03:45:05;33.00;;;3.15;;
66893;SDS011;53801;55.786;49.142;2023-02-20T03:47:32;10.80;;;3.53;;
66893;SDS011;53801;55.786;49.142;2023-02-20T03:50:00;12.97;;;4.60;;
66893;SDS011;53801;55.786;49.142;2023-02-20T03:52:25;9.65;;;4.00;;
66893;SDS011;53801;55.786;49.142;2023-02-20T03:54:51;12.07;;;3.97;;
66893;SDS011;53801;55.786;49.142;2023-02-20T03:57:18;15.90;;;5.55;;
66893;SDS011;53801;55.786;49.142;2023-02-20T03:59:49;8.97;;;3.90;;
66893;SDS011;53801;55.786;49.142;2023-02-20T04:02:26;15.68;;;3.17;;
66893;SDS011;53801;55.786;49.142;2023-02-20T04:04:54;8.45;;;2.90;;
66893;SDS011;53801;55.786;49.142;2023-02-20T04:08:08;6.07;;;2.25;;
66893;SDS011;53801;55.786;49.142;2023-02-20T04:10:08;6.25;;;2.83;;
66893;SDS011;53801;55.786;49.142;2023-02-20T04:12:37;9.75;;;5.07;;
66893;SDS011;53801;55.786;49.142;2023-02-20T04:15:05;9.00;;;3.88;;
66893;SDS011;53801;55.786;49.142;2023-02-20T04:17:33;23.87;;;4.50;;
66893;SDS011;53801;55.786;49.142;2023-02-20T04:20:00;11.20;;;2.88;;
66893;SDS011;53801;55.786;49.142;2023-02-20T04:22:27;14.57;;;3.45;;
66893;SDS011;53801;55.786;49.142;2023-02-20T04:24:55;15.37;;;4.40;;
66893;SDS011;53801;55.786;49.142;2023-02-20T04:27:22;7.95;;;4.00;;
66893;SDS011;53801;55.786;49.142;2023-02-20T04:29:48;10.33;;;3.17;;
66893;SDS011;53801;55.786;49.142;2023-02-20T04:32:13;12.17;;;4.87;;
66893;SDS011;53801;55.786;49.142;2023-02-20T04:34:39;12.30;;;4.30;;
66893;SDS011;53801;55.786;49.142;2023-02-20T04:37:09;8.23;;;3.80;;
66893;SDS011;53801;55.786;49.142;2023-02-20T04:39:35;15.27;;;4.85;;
66893;SDS011;53801;55.786;49.142;2023-02-20T04:42:01;10.43;;;4.85;;
66893;SDS011;53801;55.786;49.142;2023-02-20T04:44:26;12.00;;;5.70;;
66893;SDS011;53801;55.786;49.142;2023-02-20T04:46:55;17.45;;;6.07;;
66893;SDS011;53801;55.786;49.142;2023-02-20T04:49:21;12.10;;;3.08;;
66893;SDS011;53801;55.786;49.142;2023-02-20T04:51:47;20.23;;;6.90;;
66893;SDS011;53801;55.786;49.142;2023-02-20T04:54:12;18.63;;;8.43;;
66893;SDS011;53801;55.786;49.142;2023-02-20T04:56:37;18.17;;;5.30;;
66893;SDS011;53801;55.786;49.142;2023-02-20T04:59:06;17.13;;;4.70;;
66893;SDS011;53801;55.786;49.142;2023-02-20T05:01:31;15.40;;;5.73;;
66893;SDS011;53801;55.786;49.142;2023-02-20T05:03:57;15.70;;;5.65;;
66893;SDS011;53801;55.786;49.142;2023-02-20T05:06:23;12.70;;;6.40;;
66893;SDS011;53801;55.786;49.142;2023-02-20T05:11:50;33.30;;;10.00;;
66893;SDS011;53801;55.786;49.142;2023-02-20T05:14:16;23.90;;;7.35;;
66893;SDS011;53801;55.786;49.142;2023-02-20T05:16:42;13.07;;;4.82;;
66893;SDS011;53801;55.786;49.142;2023-02-20T05:19:09;23.20;;;6.43;;
66893;SDS011;53801;55.786;49.142;2023-02-20T05:21:35;17.90;;;6.68;;
66893;SDS011;53801;55.786;49.142;2023-02-20T05:24:19;17.55;;;4.32;;
66893;SDS011;53801;55.786;49.142;2023-02-20T05:26:45;15.80;;;6.83;;
66893;SDS011;53801;55.786;49.142;2023-02-20T05:29:11;16.50;;;6.03;;
66893;SDS011;53801;55.786;49.142;2023-02-20T05:31:38;14.43;;;6.05;;
66893;SDS011;53801;55.786;49.142;2023-02-20T05:34:04;16.70;;;5.57;;
66893;SDS011;53801;55.786;49.142;2023-02-20T05:36:29;27.52;;;5.43;;
66893;SDS011;53801;55.786;49.142;2023-02-20T05:38:55;23.05;;;6.50;;
66893;SDS011;53801;55.786;49.142;2023-02-20T05:41:21;19.80;;;6.57;;
66893;SDS011;53801;55.786;49.142;2023-02-20T05:43:47;22.80;;;6.77;;
66893;SDS011;53801;55.786;49.142;2023-02-20T05:46:13;28.43;;;8.40;;
66893;SDS011;53801;55.786;49.142;2023-02-20T05:48:39;21.48;;;7.85;;
66893;SDS011;53801;55.786;49.142;2023-02-20T05:51:05;28.75;;;7.45;;
66893;SDS011;53801;55.786;49.142;2023-02-20T05:53:30;25.25;;;7.45;;
66893;SDS011;53801;55.786;49.142;2023-02-20T05:55:56;23.30;;;8.03;;
66893;SDS011;53801;55.786;49.142;2023-02-20T05:58:21;30.00;;;8.93;;
66893;SDS011;53801;55.786;49.142;2023-02-20T06:00:47;27.23;;;9.07;;
66893;SDS011;53801;55.786;49.142;2023-02-20T06:03:13;22.70;;;7.87;;
66893;SDS011;53801;55.786;49.142;2023-02-20T06:08:21;25.37;;;8.03;;
66893;SDS011;53801;55.786;49.142;2023-02-20T06:10:48;30.50;;;8.05;;
66893;SDS011;53801;55.786;49.142;2023-02-20T06:13:13;27.48;;;8.30;;
66893;SDS011;53801;55.786;49.142;2023-02-20T06:15:39;26.37;;;8.40;;
66893;SDS011;53801;55.786;49.142;2023-02-20T06:18:11;33.55;;;10.23;;
66893;SDS011;53801;55.786;49.142;2023-02-20T06:21:00;33.22;;;10.50;;
66893;SDS011;53801;55.786;49.142;2023-02-20T06:23:26;31.05;;;8.85;;
66893;SDS011;53801;55.786;49.142;2023-02-20T06:25:52;31.73;;;10.33;;
66893;SDS011;53801;55.786;49.142;2023-02-20T06:28:17;33.27;;;10.90;;
66893;SDS011;53801;55.786;49.142;2023-02-20T06:30:46;33.40;;;11.52;;
66893;SDS011;53801;55.786;49.142;2023-02-20T06:33:11;31.47;;;10.73;;
66893;SDS011;53801;55.786;49.142;2023-02-20T06:35:40;25.67;;;9.30;;
66893;SDS011;53801;55.786;49.142;2023-02-20T06:38:08;29.17;;;10.13;;
66893;SDS011;53801;55.786;49.142;2023-02-20T06:40:34;27.90;;;9.33;;
66893;SDS011;53801;55.786;49.142;2023-02-20T06:45:35;19.30;;;6.75;;
66893;SDS011;53801;55.786;49.142;2023-02-20T07:00:21;23.30;;;7.38;;
66893;SDS011;53801;55.786;49.142;2023-02-20T07:02:48;24.70;;;6.80;;
66893;SDS011;53801;55.786;49.142;2023-02-20T07:13:33;16.13;;;5.47;;
66893;SDS011;53801;55.786;49.142;2023-02-20T07:18:26;22.38;;;6.90;;
66893;SDS011;53801;55.786;49.142;2023-02-20T07:20:54;17.03;;;5.30;;
66893;SDS011;53801;55.786;49.142;2023-02-20T07:23:20;22.13;;;6.53;;
66893;SDS011;53801;55.786;49.142;2023-02-20T07:25:46;18.53;;;6.20;;
66893;SDS011;53801;55.786;49.142;2023-02-20T07:28:12;19.45;;;6.03;;
66893;SDS011;53801;55.786;49.142;2023-02-20T07:30:38;19.90;;;5.68;;
66893;SDS011;53801;55.786;49.142;2023-02-20T07:33:04;15.60;;;3.83;;
66893;SDS011;53801;55.786;49.142;2023-02-20T07:35:29;19.10;;;5.90;;
66893;SDS011;53801;55.786;49.142;2023-02-20T07:37:55;19.73;;;5.40;;
66893;SDS011;53801;55.786;49.142;2023-02-20T07:40:20;12.27;;;4.10;;
66893;SDS011;53801;55.786;49.142;2023-02-20T07:42:46;20.92;;;6.30;;
66893;SDS011;53801;55.786;49.142;2023-02-20T07:45:11;14.63;;;5.63;;
66893;SDS011;53801;55.786;49.142;2023-02-20T07:47:37;21.92;;;6.55;;
66893;SDS011;53801;55.786;49.142;2023-02-20T07:50:04;21.93;;;6.73;;
66893;SDS011;53801;55.786;49.142;2023-02-20T07:52:29;22.58;;;6.10;;
66893;SDS011;53801;55.786;49.142;2023-02-20T07:54:55;19.87;;;6.10;;
66893;SDS011;53801;55.786;49.142;2023-02-20T07:57:20;19.90;;;7.25;;
66893;SDS011;53801;55.786;49.142;2023-02-20T07:59:49;18.00;;;6.15;;
66893;SDS011;53801;55.786;49.142;2023-02-20T08:02:15;17.05;;;5.43;;
66893;SDS011;53801;55.786;49.142;2023-02-20T08:04:40;19.67;;;5.40;;
66893;SDS011;53801;55.786;49.142;2023-02-20T08:07:07;18.40;;;6.50;;
66893;SDS011;53801;55.786;49.142;2023-02-20T08:09:32;10.10;;;4.20;;
66893;SDS011;53801;55.786;49.142;2023-02-20T08:12:20;22.10;;;5.73;;
66893;SDS011;53801;55.786;49.142;2023-02-20T08:14:48;13.52;;;4.43;;
66893;SDS011;53801;55.786;49.142;2023-02-20T08:17:13;20.10;;;5.88;;
66893;SDS011;53801;55.786;49.142;2023-02-20T08:19:39;11.68;;;4.63;;
66893;SDS011;53801;55.786;49.142;2023-02-20T08:28:05;13.65;;;3.55;;
66893;SDS011;53801;55.786;49.142;2023-02-20T08:30:38;17.95;;;4.82;;
66893;SDS011;53801;55.786;49.142;2023-02-20T08:33:03;12.80;;;3.40;;
66893;SDS011;53801;55.786;49.142;2023-02-20T08:35:36;7.95;;;2.28;;
66893;SDS011;53801;55.786;49.142;2023-02-20T08:38:03;19.65;;;5.05;;
66893;SDS011;53801;55.786;49.142;2023-02-20T08:40:32;10.27;;;3.67;;
66893;SDS011;53801;55.786;49.142;2023-02-20T08:43:00;14.13;;;4.77;;
66893;SDS011;53801;55.786;49.142;2023-02-20T08:45:26;14.32;;;2.28;;
66893;SDS011;53801;55.786;49.142;2023-02-20T08:47:55;19.95;;;5.00;;
66893;SDS011;53801;55.786;49.142;2023-02-20T08:50:24;14.82;;;4.43;;
66893;SDS011;53801;55.786;49.142;2023-02-20T08:52:51;11.32;;;3.65;;
66893;SDS011;53801;55.786;49.142;2023-02-20T08:55:17;14.50;;;4.53;;
66893;SDS011;53801;55.786;49.142;2023-02-20T08:57:44;12.73;;;5.05;;
66893;SDS011;53801;55.786;49.142;2023-02-20T09:00:10;22.10;;;5.63;;
66893;SDS011;53801;55.786;49.142;2023-02-20T09:11:40;10.77;;;3.17;;
66893;SDS011;53801;55.786;49.142;2023-02-20T09:14:30;7.60;;;3.28;;
66893;SDS011;53801;55.786;49.142;2023-02-20T09:19:54;22.52;;;4.55;;
66893;SDS011;53801;55.786;49.142;2023-02-20T09:22:21;14.33;;;4.27;;
66893;SDS011;53801;55.786;49.142;2023-02-20T09:24:47;10.07;;;3.30;;
66893;SDS011;53801;55.786;49.142;2023-02-20T09:27:13;14.05;;;4.82;;
66893;SDS011;53801;55.786;49.142;2023-02-20T09:29:43;18.27;;;4.93;;
66893;SDS011;53801;55.786;49.142;2023-02-20T09:32:09;14.35;;;4.18;;
66893;SDS011;53801;55.786;49.142;2023-02-20T09:34:36;18.10;;;5.95;;
66893;SDS011;53801;55.786;49.142;2023-02-20T09:37:20;12.33;;;4.27;;
66893;SDS011;53801;55.786;49.142;2023-02-20T09:39:53;19.55;;;4.60;;
66893;SDS011;53801;55.786;49.142;2023-02-20T09:50:58;10.73;;;3.17;;
66893;SDS011;53801;55.786;49.142;2023-02-20T09:56:18;19.70;;;5.80;;
66893;SDS011;53801;55.786;49.142;2023-02-20T10:03:55;11.98;;;4.38;;
66893;SDS011;53801;55.786;49.142;2023-02-20T10:06:24;15.43;;;4.97;;
66893;SDS011;53801;55.786;49.142;2023-02-20T10:08:54;12.68;;;5.25;;
66893;SDS011;53801;55.786;49.142;2023-02-20T10:14:13;11.15;;;4.03;;
66893;SDS011;53801;55.786;49.142;2023-02-20T10:22:18;9.90;;;3.83;;
66893;SDS011;53801;55.786;49.142;2023-02-20T10:25:00;6.50;;;2.08;;
66893;SDS011;53801;55.786;49.142;2023-02-20T11:04:35;12.40;;;3.63;;
66893;SDS011;53801;55.786;49.142;2023-02-20T11:07:13;10.80;;;3.40;;
66893;SDS011;53801;55.786;49.142;2023-02-20T11:12:19;15.68;;;5.93;;
66893;SDS011;53801;55.786;49.142;2023-02-20T11:14:46;14.15;;;5.03;;
66893;SDS011;53801;55.786;49.142;2023-02-20T11:17:16;17.37;;;5.93;;
66893;SDS011;53801;55.786;49.142;2023-02-20T11:25:49;13.80;;;3.85;;
66893;SDS011;53801;55.786;49.142;2023-02-20T11:28:18;11.93;;;4.20;;
66893;SDS011;53801;55.786;49.142;2023-02-20T11:33:42;15.30;;;3.80;;
66893;SDS011;53801;55.786;49.142;2023-02-20T11:36:16;9.65;;;4.20;;
66893;SDS011;53801;55.786;49.142;2023-02-20T11:45:15;9.25;;;3.63;;
66893;SDS011;53801;55.786;49.142;2023-02-20T11:52:54;14.10;;;4.80;;
66893;SDS011;53801;55.786;49.142;2023-02-20T11:55:21;22.05;;;6.10;;
66893;SDS011;53801;55.786;49.142;2023-02-20T12:03:49;10.13;;;4.05;;
66893;SDS011;53801;55.786;49.142;2023-02-20T12:06:57;8.15;;;3.05;;
66893;SDS011;53801;55.786;49.142;2023-02-20T12:09:24;20.20;;;5.75;;
66893;SDS011;53801;55.786;49.142;2023-02-20T12:11:53;10.00;;;4.18;;
66893;SDS011;53801;55.786;49.142;2023-02-20T12:14:21;17.75;;;6.15;;
66893;SDS011;53801;55.786;49.142;2023-02-20T12:20:06;12.20;;;4.37;;
66893;SDS011;53801;55.786;49.142;2023-02-20T12:22:37;9.52;;;4.20;;
66893;SDS011;53801;55.786;49.142;2023-02-20T12:25:11;10.98;;;3.67;;
66893;SDS011;53801;55.786;49.142;2023-02-20T12:28:00;18.33;;;5.15;;
66893;SDS011;53801;55.786;49.142;2023-02-20T12:30:45;16.77;;;5.30;;
66893;SDS011;53801;55.786;49.142;2023-02-20T12:33:37;8.68;;;2.67;;
66893;SDS011;53801;55.786;49.142;2023-02-20T12:38:48;18.17;;;4.85;;
66893;SDS011;53801;55.786;49.142;2023-02-20T12:41:30;7.60;;;3.60;;
66893;SDS011;53801;55.786;49.142;2023-02-20T12:47:33;10.75;;;4.25;;
66893;SDS011;53801;55.786;49.142;2023-02-20T13:01:08;17.73;;;5.72;;
66893;SDS011;53801;55.786;49.142;2023-02-20T13:36:40;13.48;;;3.88;;
66893;SDS011;53801;55.786;49.142;2023-02-20T13:39:26;10.30;;;3.25;;
66893;SDS011;53801;55.786;49.142;2023-02-20T13:41:58;9.57;;;3.80;;
66893;SDS011;53801;55.786;49.142;2023-02-20T13:53:10;11.43;;;4.43;;
66893;SDS011;53801;55.786;49.142;2023-02-20T13:55:43;20.33;;;5.50;;
66893;SDS011;53801;55.786;49.142;2023-02-20T13:58:11;15.27;;;4.32;;
66893;SDS011;53801;55.786;49.142;2023-02-20T14:03:13;13.87;;;4.77;;
66893;SDS011;53801;55.786;49.142;2023-02-20T14:17:54;15.95;;;6.28;;
66893;SDS011;53801;55.786;49.142;2023-02-20T14:24:33;24.63;;;5.68;;
66893;SDS011;53801;55.786;49.142;2023-02-20T14:26:59;11.93;;;4.73;;
66893;SDS011;53801;55.786;49.142;2023-02-20T14:29:26;16.00;;;4.35;;
66893;SDS011;53801;55.786;49.142;2023-02-20T14:37:28;12.77;;;5.05;;
66893;SDS011;53801;55.786;49.142;2023-02-20T14:42:21;12.13;;;3.90;;
66893;SDS011;53801;55.786;49.142;2023-02-20T14:44:55;13.43;;;4.35;;
66893;SDS011;53801;55.786;49.142;2023-02-20T14:47:28;17.70;;;5.82;;
66893;SDS011;53801;55.786;49.142;2023-02-20T14:50:06;11.77;;;4.77;;
66893;SDS011;53801;55.786;49.142;2023-02-20T15:38:52;14.20;;;5.60;;
66893;SDS011;53801;55.786;49.142;2023-02-20T15:43:53;13.50;;;3.93;;
66893;SDS011;53801;55.786;49.142;2023-02-20T16:06:53;19.75;;;5.82;;
66893;SDS011;53801;55.786;49.142;2023-02-20T16:09:22;20.50;;;5.50;;
66893;SDS011;53801;55.786;49.142;2023-02-20T16:11:49;19.02;;;5.30;;
66893;SDS011;53801;55.786;49.142;2023-02-20T16:17:23;14.35;;;5.40;;
66893;SDS011;53801;55.786;49.142;2023-02-20T16:19:52;23.10;;;5.93;;
66893;SDS011;53801;55.786;49.142;2023-02-20T16:22:19;16.80;;;5.87;;
66893;SDS011;53801;55.786;49.142;2023-02-20T16:24:45;22.83;;;6.75;;
66893;SDS011;53801;55.786;49.142;2023-02-20T16:29:40;22.58;;;5.40;;
66893;SDS011;53801;55.786;49.142;2023-02-20T16:32:08;16.25;;;5.07;;
66893;SDS011;53801;55.786;49.142;2023-02-20T16:34:36;12.65;;;3.95;;
66893;SDS011;53801;55.786;49.142;2023-02-20T16:37:03;23.52;;;6.50;;
66893;SDS011;53801;55.786;49.142;2023-02-20T16:39:29;15.80;;;6.37;;
66893;SDS011;53801;55.786;49.142;2023-02-20T16:41:56;14.77;;;4.63;;
66893;SDS011;53801;55.786;49.142;2023-02-20T16:44:36;17.27;;;4.95;;
66893;SDS011;53801;55.786;49.142;2023-02-20T16:47:17;18.30;;;3.85;;
66893;SDS011;53801;55.786;49.142;2023-02-20T16:49:43;16.63;;;3.67;;
66893;SDS011;53801;55.786;49.142;2023-02-20T16:52:16;12.30;;;4.43;;
66893;SDS011;53801;55.786;49.142;2023-02-20T16:54:44;19.10;;;5.27;;
66893;SDS011;53801;55.786;49.142;2023-02-20T16:57:14;12.65;;;5.03;;
66893;SDS011;53801;55.786;49.142;2023-02-20T16:59:44;22.67;;;7.28;;
66893;SDS011;53801;55.786;49.142;2023-02-20T17:02:16;14.00;;;4.65;;
66893;SDS011;53801;55.786;49.142;2023-02-20T17:04:47;13.57;;;5.22;;
66893;SDS011;53801;55.786;49.142;2023-02-20T17:07:13;17.95;;;5.38;;
66893;SDS011;53801;55.786;49.142;2023-02-20T17:09:39;13.55;;;4.88;;
66893;SDS011;53801;55.786;49.142;2023-02-20T17:12:05;13.70;;;4.43;;
66893;SDS011;53801;55.786;49.142;2023-02-20T17:14:38;11.93;;;4.85;;
66893;SDS011;53801;55.786;49.142;2023-02-20T17:17:05;16.20;;;5.15;;
66893;SDS011;53801;55.786;49.142;2023-02-20T17:19:31;16.93;;;4.53;;
66893;SDS011;53801;55.786;49.142;2023-02-20T17:21:58;11.75;;;4.18;;
66893;SDS011;53801;55.786;49.142;2023-02-20T17:24:29;25.50;;;7.05;;
66893;SDS011;53801;55.786;49.142;2023-02-20T17:27:10;14.70;;;3.67;;
66893;SDS011;53801;55.786;49.142;2023-02-20T17:29:38;18.17;;;5.83;;
66893;SDS011;53801;55.786;49.142;2023-02-20T17:32:05;11.93;;;4.25;;
66893;SDS011;53801;55.786;49.142;2023-02-20T17:40:01;15.93;;;5.63;;
66893;SDS011;53801;55.786;49.142;2023-02-20T17:42:29;22.27;;;7.18;;
66893;SDS011;53801;55.786;49.142;2023-02-20T17:45:03;20.40;;;6.20;;
66893;SDS011;53801;55.786;49.142;2023-02-20T17:47:30;15.17;;;5.33;;
66893;SDS011;53801;55.786;49.142;2023-02-20T17:52:46;15.77;;;5.43;;
66893;SDS011;53801;55.786;49.142;2023-02-20T17:55:17;14.97;;;4.90;;
66893;SDS011;53801;55.786;49.142;2023-02-20T17:58:06;16.23;;;5.25;;
66893;SDS011;53801;55.786;49.142;2023-02-20T18:00:42;16.02;;;4.88;;
66893;SDS011;53801;55.786;49.142;2023-02-20T18:03:10;22.05;;;5.40;;
66893;SDS011;53801;55.786;49.142;2023-02-20T18:14:30;17.50;;;4.45;;
66893;SDS011;53801;55.786;49.142;2023-02-20T18:19:42;12.57;;;4.15;;
66893;SDS011;53801;55.786;49.142;2023-02-20T18:34:22;11.35;;;4.07;;
66893;SDS011;53801;55.786;49.142;2023-02-20T18:36:48;13.23;;;4.57;;
66893;SDS011;53801;55.786;49.142;2023-02-20T18:39:22;14.52;;;5.75;;
66893;SDS011;53801;55.786;49.142;2023-02-20T18:41:49;20.77;;;6.05;;
66893;SDS011;53801;55.786;49.142;2023-02-20T18:44:18;10.63;;;3.58;;
66893;SDS011;53801;55.786;49.142;2023-02-20T18:46:53;17.38;;;5.65;;
66893;SDS011;53801;55.786;49.142;2023-02-20T19:01:24;9.30;;;3.40;;
66893;SDS011;53801;55.786;49.142;2023-02-20T19:03:57;16.10;;;5.05;;
66893;SDS011;53801;55.786;49.142;2023-02-20T19:06:59;11.48;;;3.95;;
66893;SDS011;53801;55.786;49.142;2023-02-20T19:15:19;13.93;;;4.70;;
66893;SDS011;53801;55.786;49.142;2023-02-20T19:17:58;19.10;;;6.28;;
66893;SDS011;53801;55.786;49.142;2023-02-20T19:20:28;17.30;;;4.25;;
66893;SDS011;53801;55.786;49.142;2023-02-20T19:23:09;12.90;;;4.10;;
66893;SDS011;53801;55.786;49.142;2023-02-20T19:25:42;14.98;;;5.38;;
66893;SDS011;53801;55.786;49.142;2023-02-20T19:28:12;16.33;;;4.55;;
66893;SDS011;53801;55.786;49.142;2023-02-20T19:30:38;21.00;;;5.97;;
66893;SDS011;53801;55.786;49.142;2023-02-20T19:35:53;17.60;;;5.00;;
66893;SDS011;53801;55.786;49.142;2023-02-20T19:41:07;19.23;;;5.32;;
66893;SDS011;53801;55.786;49.142;2023-02-20T19:49:46;17.30;;;5.53;;
66893;SDS011;53801;55.786;49.142;2023-02-20T20:22:39;13.27;;;4.35;;
66893;SDS011;53801;55.786;49.142;2023-02-20T20:37:09;19.60;;;5.18;;
66893;SDS011;53801;55.786;49.142;2023-02-20T20:42:28;12.65;;;4.13;;
66893;SDS011;53801;55.786;49.142;2023-02-20T20:44:55;13.17;;;4.67;;
66893;SDS011;53801;55.786;49.142;2023-02-20T20:47:24;22.98;;;5.55;;
66893;SDS011;53801;55.786;49.142;2023-02-20T20:52:36;22.87;;;6.03;;
66893;SDS011;53801;55.786;49.142;2023-02-20T20:55:01;12.02;;;3.13;;
66893;SDS011;53801;55.786;49.142;2023-02-20T21:00:21;10.23;;;3.38;;
66893;SDS011;53801;55.786;49.142;2023-02-20T21:02:49;19.35;;;5.70;;
66893;SDS011;53801;55.786;49.142;2023-02-20T21:05:20;21.88;;;5.88;;
66893;SDS011;53801;55.786;49.142;2023-02-20T21:07:57;9.90;;;3.90;;
66893;SDS011;53801;55.786;49.142;2023-02-20T21:10:23;17.08;;;5.30;;
66893;SDS011;53801;55.786;49.142;2023-02-20T21:12:50;18.98;;;5.15;;
66893;SDS011;53801;55.786;49.142;2023-02-20T21:15:15;12.27;;;3.90;;
66893;SDS011;53801;55.786;49.142;2023-02-20T21:17:42;17.25;;;5.22;;
66893;SDS011;53801;55.786;49.142;2023-02-20T21:20:18;17.75;;;5.43;;
66893;SDS011;53801;55.786;49.142;2023-02-20T21:22:57;17.10;;;4.82;;
66893;SDS011;53801;55.786;49.142;2023-02-20T21:25:26;17.30;;;5.68;;
66893;SDS011;53801;55.786;49.142;2023-02-20T21:27:55;12.50;;;2.92;;
66893;SDS011;53801;55.786;49.142;2023-02-20T21:30:24;13.37;;;4.57;;
66893;SDS011;53801;55.786;49.142;2023-02-20T21:32:52;17.17;;;5.43;;
66893;SDS011;53801;55.786;49.142;2023-02-20T21:35:21;17.02;;;4.93;;
66893;SDS011;53801;55.786;49.142;2023-02-20T21:37:55;13.70;;;4.60;;
66893;SDS011;53801;55.786;49.142;2023-02-20T21:40:25;16.33;;;5.30;;
66893;SDS011;53801;55.786;49.142;2023-02-20T21:45:59;15.45;;;4.35;;
66893;SDS011;53801;55.786;49.142;2023-02-20T21:48:25;25.93;;;4.90;;
66893;SDS011;53801;55.786;49.142;2023-02-20T21:50:52;17.15;;;4.10;;
66893;SDS011;53801;55.786;49.142;2023-02-20T21:53:20;16.83;;;5.63;;
66893;SDS011;53801;55.786;49.142;2023-02-20T21:55:45;22.93;;;4.23;;
66893;SDS011;53801;55.786;49.142;2023-02-20T21:58:11;11.23;;;4.23;;